sensor_id;sensor_type;location;lat;lon;timestamp;pressure;altitude;pressure_sealevel;temperature;humidity
54876;BME280;40764;48.472;8.166;2023-04-21T00:00:54;97793.25;;;3.08;95.00
54876;BME280;40764;48.472;8.166;2023-04-21T00:06:55;97785.19;;;3.13;95.30
54876;BME280;40764;48.472;8.166;2023-04-21T00:12:55;97780.03;;;2.79;95.74
54876;BME280;40764;48.472;8.166;2023-04-21T00:18:56;97775.41;;;2.75;95.54
54876;BME280;40764;48.472;8.166;2023-04-21T00:24:56;97774.88;;;2.78;96.45
54876;BME280;40764;48.472;8.166;2023-04-21T00:30:57;97775.56;;;2.90;94.75
54876;BME280;40764;48.472;8.166;2023-04-21T00:36:57;97767.56;;;2.73;95.21
54876;BME280;40764;48.472;8.166;2023-04-21T00:42:58;97752.09;;;2.64;96.32
54876;BME280;40764;48.472;8.166;2023-04-21T00:48:59;97748.84;;;2.62;95.72
54876;BME280;40764;48.472;8.166;2023-04-21T00:55:00;97754.56;;;2.43;96.64
54876;BME280;40764;48.472;8.166;2023-04-21T01:01:00;97755.03;;;2.35;98.00
54876;BME280;40764;48.472;8.166;2023-04-21T01:07:01;97754.34;;;2.50;97.29
54876;BME280;40764;48.472;8.166;2023-04-21T01:13:03;97760.88;;;2.54;96.12
54876;BME280;40764;48.472;8.166;2023-04-21T01:19:03;97766.50;;;2.26;97.48
54876;BME280;40764;48.472;8.166;2023-04-21T01:25:05;97766.31;;;2.32;96.65
54876;BME280;40764;48.472;8.166;2023-04-21T01:31:06;97776.16;;;2.22;96.25
54876;BME280;40764;48.472;8.166;2023-04-21T01:37:10;97781.69;;;2.32;96.49
54876;BME280;40764;48.472;8.166;2023-04-21T01:43:12;97773.84;;;2.08;97.66
54876;BME280;40764;48.472;8.166;2023-04-21T01:49:12;97782.81;;;2.14;97.26
54876;BME280;40764;48.472;8.166;2023-04-21T01:55:13;97775.25;;;2.11;97.56
54876;BME280;40764;48.472;8.166;2023-04-21T02:01:13;97777.31;;;2.04;96.71
54876;BME280;40764;48.472;8.166;2023-04-21T02:07:14;97778.56;;;2.18;96.37
54876;BME280;40764;48.472;8.166;2023-04-21T02:13:14;97777.94;;;2.11;96.17
54876;BME280;40764;48.472;8.166;2023-04-21T02:19:15;97785.56;;;2.19;96.54
54876;BME280;40764;48.472;8.166;2023-04-21T02:25:15;97775.50;;;2.09;95.19
54876;BME280;40764;48.472;8.166;2023-04-21T02:31:16;97770.09;;;2.09;95.27
54876;BME280;40764;48.472;8.166;2023-04-21T02:37:18;97768.63;;;2.02;95.79
54876;BME280;40764;48.472;8.166;2023-04-21T02:43:18;97762.75;;;2.05;97.16
54876;BME280;40764;48.472;8.166;2023-04-21T02:49:19;97757.03;;;2.01;95.83
54876;BME280;40764;48.472;8.166;2023-04-21T02:55:19;97767.66;;;2.08;95.20
54876;BME280;40764;48.472;8.166;2023-04-21T03:01:21;97761.00;;;1.94;95.35
54876;BME280;40764;48.472;8.166;2023-04-21T03:07:21;97760.63;;;1.85;96.72
54876;BME280;40764;48.472;8.166;2023-04-21T03:13:23;97751.03;;;1.94;97.14
54876;BME280;40764;48.472;8.166;2023-04-21T03:19:23;97750.56;;;2.02;96.41
54876;BME280;40764;48.472;8.166;2023-04-21T03:25:23;97748.63;;;1.98;95.69
54876;BME280;40764;48.472;8.166;2023-04-21T03:31:26;97758.56;;;2.14;95.70
54876;BME280;40764;48.472;8.166;2023-04-21T03:37:26;97754.53;;;1.95;95.64
54876;BME280;40764;48.472;8.166;2023-04-21T03:43:27;97759.97;;;1.56;98.16
54876;BME280;40764;48.472;8.166;2023-04-21T03:49:27;97752.63;;;1.73;97.23
54876;BME280;40764;48.472;8.166;2023-04-21T03:55:27;97736.00;;;1.76;96.32
54876;BME280;40764;48.472;8.166;2023-04-21T04:01:28;97738.94;;;1.75;97.37
54876;BME280;40764;48.472;8.166;2023-04-21T04:07:28;97733.03;;;2.00;97.05
54876;BME280;40764;48.472;8.166;2023-04-21T04:13:29;97733.53;;;1.97;97.57
54876;BME280;40764;48.472;8.166;2023-04-21T04:19:30;97738.47;;;1.61;97.24
54876;BME280;40764;48.472;8.166;2023-04-21T04:25:31;97738.41;;;1.56;98.43
54876;BME280;40764;48.472;8.166;2023-04-21T04:31:32;97731.31;;;1.72;97.81
54876;BME280;40764;48.472;8.166;2023-04-21T04:37:36;97732.47;;;1.37;98.99
54876;BME280;40764;48.472;8.166;2023-04-21T04:43:37;97742.53;;;1.64;97.83
54876;BME280;40764;48.472;8.166;2023-04-21T04:49:40;97737.19;;;1.85;96.99
54876;BME280;40764;48.472;8.166;2023-04-21T04:55:40;97734.53;;;1.91;97.08
54876;BME280;40764;48.472;8.166;2023-04-21T05:01:41;97749.16;;;1.95;96.68
54876;BME280;40764;48.472;8.166;2023-04-21T05:07:41;97741.38;;;1.76;96.56
54876;BME280;40764;48.472;8.166;2023-04-21T05:13:41;97746.69;;;1.71;96.76
54876;BME280;40764;48.472;8.166;2023-04-21T05:19:42;97748.09;;;1.74;97.33
54876;BME280;40764;48.472;8.166;2023-04-21T05:25:43;97750.84;;;1.79;98.14
54876;BME280;40764;48.472;8.166;2023-04-21T05:31:43;97763.44;;;1.95;97.57
54876;BME280;40764;48.472;8.166;2023-04-21T05:37:43;97756.09;;;2.12;97.10
54876;BME280;40764;48.472;8.166;2023-04-21T05:43:44;97763.50;;;2.22;96.36
54876;BME280;40764;48.472;8.166;2023-04-21T05:49:44;97758.53;;;2.36;96.87
54876;BME280;40764;48.472;8.166;2023-04-21T05:55:49;97763.78;;;2.47;97.97
54876;BME280;40764;48.472;8.166;2023-04-21T06:01:49;97754.97;;;2.84;97.16
54876;BME280;40764;48.472;8.166;2023-04-21T06:07:50;97749.06;;;3.19;97.26
54876;BME280;40764;48.472;8.166;2023-04-21T06:13:50;97751.47;;;3.58;96.42
54876;BME280;40764;48.472;8.166;2023-04-21T06:19:52;97744.59;;;3.82;95.12
54876;BME280;40764;48.472;8.166;2023-04-21T06:26:05;97731.75;;;4.10;94.28
54876;BME280;40764;48.472;8.166;2023-04-21T06:32:06;97733.72;;;4.34;94.39
54876;BME280;40764;48.472;8.166;2023-04-21T06:38:07;97720.25;;;4.75;93.54
54876;BME280;40764;48.472;8.166;2023-04-21T06:44:07;97715.09;;;4.89;92.77
54876;BME280;40764;48.472;8.166;2023-04-21T06:50:12;97716.19;;;5.18;92.15
54876;BME280;40764;48.472;8.166;2023-04-21T06:56:13;97704.22;;;5.60;90.58
54876;BME280;40764;48.472;8.166;2023-04-21T07:02:13;97702.22;;;5.96;90.09
54876;BME280;40764;48.472;8.166;2023-04-21T07:08:13;97699.41;;;6.21;89.61
54876;BME280;40764;48.472;8.166;2023-04-21T07:14:14;97696.09;;;6.74;87.33
54876;BME280;40764;48.472;8.166;2023-04-21T07:20:14;97693.66;;;7.06;86.63
54876;BME280;40764;48.472;8.166;2023-04-21T07:26:16;97676.50;;;7.40;86.29
54876;BME280;40764;48.472;8.166;2023-04-21T07:32:17;97674.56;;;7.69;86.13
54876;BME280;40764;48.472;8.166;2023-04-21T07:38:17;97670.00;;;7.89;88.05
54876;BME280;40764;48.472;8.166;2023-04-21T07:44:18;97672.03;;;8.21;84.78
54876;BME280;40764;48.472;8.166;2023-04-21T07:50:18;97663.53;;;8.65;83.98
54876;BME280;40764;48.472;8.166;2023-04-21T07:56:19;97665.03;;;9.09;81.65
54876;BME280;40764;48.472;8.166;2023-04-21T08:02:19;97653.88;;;9.38;78.85
54876;BME280;40764;48.472;8.166;2023-04-21T08:08:20;97650.16;;;9.75;78.19
54876;BME280;40764;48.472;8.166;2023-04-21T08:14:21;97642.16;;;10.06;74.37
54876;BME280;40764;48.472;8.166;2023-04-21T08:20:21;97629.41;;;10.42;74.25
54876;BME280;40764;48.472;8.166;2023-04-21T08:26:22;97624.22;;;10.77;74.00
54876;BME280;40764;48.472;8.166;2023-04-21T08:32:22;97624.91;;;11.05;70.59
54876;BME280;40764;48.472;8.166;2023-04-21T08:38:23;97605.28;;;11.34;71.12
54876;BME280;40764;48.472;8.166;2023-04-21T08:44:23;97605.25;;;11.65;68.74
54876;BME280;40764;48.472;8.166;2023-04-21T08:50:27;97598.28;;;11.98;66.90
54876;BME280;40764;48.472;8.166;2023-04-21T08:56:28;97590.75;;;12.38;65.21
54876;BME280;40764;48.472;8.166;2023-04-21T09:02:28;97576.56;;;12.62;63.61
54876;BME280;40764;48.472;8.166;2023-04-21T09:08:30;97555.38;;;13.06;63.33
54876;BME280;40764;48.472;8.166;2023-04-21T09:14:31;97558.09;;;13.15;62.11
54876;BME280;40764;48.472;8.166;2023-04-21T09:20:32;97559.53;;;13.29;61.30
54876;BME280;40764;48.472;8.166;2023-04-21T09:26:32;97545.69;;;13.55;61.18
54876;BME280;40764;48.472;8.166;2023-04-21T09:32:37;97547.69;;;13.76;58.91
54876;BME280;40764;48.472;8.166;2023-04-21T09:38:38;97549.41;;;13.89;59.76
54876;BME280;40764;48.472;8.166;2023-04-21T09:44:39;97553.09;;;13.93;60.20
54876;BME280;40764;48.472;8.166;2023-04-21T09:50:40;97550.28;;;14.02;59.22
54876;BME280;40764;48.472;8.166;2023-04-21T09:56:42;97540.44;;;14.42;58.33
54876;BME280;40764;48.472;8.166;2023-04-21T10:02:45;97534.75;;;14.68;58.98
54876;BME280;40764;48.472;8.166;2023-04-21T10:08:48;97531.53;;;14.66;60.27
54876;BME280;40764;48.472;8.166;2023-04-21T10:14:55;97523.47;;;14.49;60.46
54876;BME280;40764;48.472;8.166;2023-04-21T10:20:57;97522.22;;;14.38;61.29
54876;BME280;40764;48.472;8.166;2023-04-21T10:27:00;97536.56;;;14.02;61.67
54876;BME280;40764;48.472;8.166;2023-04-21T10:33:02;97535.22;;;14.29;61.67
54876;BME280;40764;48.472;8.166;2023-04-21T10:39:03;97532.41;;;14.37;61.77
54876;BME280;40764;48.472;8.166;2023-04-21T10:45:07;97535.78;;;14.64;60.91
54876;BME280;40764;48.472;8.166;2023-04-21T10:51:09;97526.34;;;14.85;59.90
54876;BME280;40764;48.472;8.166;2023-04-21T10:57:12;97516.38;;;14.93;60.80
54876;BME280;40764;48.472;8.166;2023-04-21T11:03:12;97521.03;;;15.13;60.51
54876;BME280;40764;48.472;8.166;2023-04-21T11:09:15;97515.31;;;15.43;58.63
54876;BME280;40764;48.472;8.166;2023-04-21T11:15:15;97511.19;;;15.98;53.32
54876;BME280;40764;48.472;8.166;2023-04-21T11:21:17;97502.75;;;16.31;52.87
54876;BME280;40764;48.472;8.166;2023-04-21T11:27:19;97489.84;;;16.63;54.62
54876;BME280;40764;48.472;8.166;2023-04-21T11:33:21;97491.69;;;16.71;52.39
54876;BME280;40764;48.472;8.166;2023-04-21T11:39:21;97498.72;;;17.44;47.80
54876;BME280;40764;48.472;8.166;2023-04-21T11:45:22;97498.97;;;17.86;48.49
54876;BME280;40764;48.472;8.166;2023-04-21T11:51:22;97505.06;;;18.11;47.34
54876;BME280;40764;48.472;8.166;2023-04-21T11:57:23;97500.84;;;18.52;46.83
54876;BME280;40764;48.472;8.166;2023-04-21T12:03:24;97491.41;;;18.37;47.26
54876;BME280;40764;48.472;8.166;2023-04-21T12:09:25;97498.88;;;17.98;47.09
54876;BME280;40764;48.472;8.166;2023-04-21T12:15:28;97498.19;;;18.59;47.29
54876;BME280;40764;48.472;8.166;2023-04-21T12:21:29;97498.06;;;18.52;44.50
54876;BME280;40764;48.472;8.166;2023-04-21T12:27:29;97506.66;;;17.14;54.83
54876;BME280;40764;48.472;8.166;2023-04-21T12:33:30;97491.84;;;17.85;52.56
54876;BME280;40764;48.472;8.166;2023-04-21T12:39:30;97497.94;;;17.75;53.93
54876;BME280;40764;48.472;8.166;2023-04-21T12:45:30;97496.94;;;18.37;52.42
54876;BME280;40764;48.472;8.166;2023-04-21T12:51:32;97472.22;;;18.64;50.69
54876;BME280;40764;48.472;8.166;2023-04-21T12:57:32;97464.66;;;18.80;51.06
54876;BME280;40764;48.472;8.166;2023-04-21T13:03:33;97474.31;;;18.32;52.13
54876;BME280;40764;48.472;8.166;2023-04-21T13:09:33;97466.84;;;17.97;53.27
54876;BME280;40764;48.472;8.166;2023-04-21T13:15:34;97470.53;;;17.85;54.93
54876;BME280;40764;48.472;8.166;2023-04-21T13:21:34;97473.72;;;17.87;53.77
54876;BME280;40764;48.472;8.166;2023-04-21T13:27:34;97467.38;;;17.68;54.14
54876;BME280;40764;48.472;8.166;2023-04-21T13:33:37;97470.47;;;17.34;55.80
54876;BME280;40764;48.472;8.166;2023-04-21T13:39:37;97469.50;;;17.27;55.70
54876;BME280;40764;48.472;8.166;2023-04-21T13:45:39;97471.19;;;17.16;56.27
54876;BME280;40764;48.472;8.166;2023-04-21T13:51:40;97522.88;;;16.59;58.07
54876;BME280;40764;48.472;8.166;2023-04-21T13:57:41;97532.34;;;15.94;64.94
54876;BME280;40764;48.472;8.166;2023-04-21T14:03:41;97552.47;;;15.25;73.23
54876;BME280;40764;48.472;8.166;2023-04-21T14:09:42;97558.97;;;14.33;83.10
54876;BME280;40764;48.472;8.166;2023-04-21T14:15:43;97552.59;;;14.20;87.48
54876;BME280;40764;48.472;8.166;2023-04-21T14:21:43;97561.91;;;14.91;83.44
54876;BME280;40764;48.472;8.166;2023-04-21T14:27:43;97549.28;;;16.72;85.86
54876;BME280;40764;48.472;8.166;2023-04-21T14:33:44;97540.78;;;16.78;81.14
54876;BME280;40764;48.472;8.166;2023-04-21T14:39:44;97538.09;;;17.09;77.07
54876;BME280;40764;48.472;8.166;2023-04-21T14:45:45;97527.13;;;16.57;82.97
54876;BME280;40764;48.472;8.166;2023-04-21T14:51:46;97519.69;;;16.85;82.31
54876;BME280;40764;48.472;8.166;2023-04-21T14:57:48;97522.00;;;16.43;76.18
54876;BME280;40764;48.472;8.166;2023-04-21T15:03:50;97519.09;;;16.11;76.39
54876;BME280;40764;48.472;8.166;2023-04-21T15:09:52;97521.31;;;15.94;76.64
54876;BME280;40764;48.472;8.166;2023-04-21T15:15:52;97512.59;;;15.79;77.57
54876;BME280;40764;48.472;8.166;2023-04-21T15:21:53;97511.09;;;15.94;77.41
54876;BME280;40764;48.472;8.166;2023-04-21T15:27:53;97506.97;;;15.76;77.22
54876;BME280;40764;48.472;8.166;2023-04-21T15:33:53;97516.25;;;15.84;78.58
54876;BME280;40764;48.472;8.166;2023-04-21T15:39:54;97519.09;;;15.50;78.47
54876;BME280;40764;48.472;8.166;2023-04-21T15:45:55;97531.13;;;15.09;81.92
54876;BME280;40764;48.472;8.166;2023-04-21T15:51:56;97528.81;;;15.11;83.98
54876;BME280;40764;48.472;8.166;2023-04-21T15:57:56;97518.63;;;15.12;84.11
54876;BME280;40764;48.472;8.166;2023-04-21T16:03:57;97522.81;;;14.97;89.49
54876;BME280;40764;48.472;8.166;2023-04-21T16:09:57;97507.22;;;14.89;92.17
54876;BME280;40764;48.472;8.166;2023-04-21T16:15:58;97508.34;;;14.88;89.60
54876;BME280;40764;48.472;8.166;2023-04-21T16:21:58;97520.97;;;14.89;91.82
54876;BME280;40764;48.472;8.166;2023-04-21T16:27:59;97504.22;;;14.94;91.56
54876;BME280;40764;48.472;8.166;2023-04-21T16:33:59;97502.53;;;15.02;91.80
54876;BME280;40764;48.472;8.166;2023-04-21T16:40:00;97499.28;;;14.87;94.99
54876;BME280;40764;48.472;8.166;2023-04-21T16:46:00;97498.09;;;15.09;95.30
54876;BME280;40764;48.472;8.166;2023-04-21T16:52:01;97489.25;;;15.04;92.42
54876;BME280;40764;48.472;8.166;2023-04-21T16:58:01;97490.06;;;15.04;93.74
54876;BME280;40764;48.472;8.166;2023-04-21T17:04:02;97500.56;;;15.02;93.90
54876;BME280;40764;48.472;8.166;2023-04-21T17:10:02;97503.75;;;14.80;94.63
54876;BME280;40764;48.472;8.166;2023-04-21T17:16:03;97499.19;;;14.42;97.40
54876;BME280;40764;48.472;8.166;2023-04-21T17:22:03;97505.06;;;14.20;98.47
54876;BME280;40764;48.472;8.166;2023-04-21T17:28:03;97504.13;;;13.95;99.52
54876;BME280;40764;48.472;8.166;2023-04-21T17:34:04;97507.50;;;13.71;99.91
54876;BME280;40764;48.472;8.166;2023-04-21T17:40:05;97517.72;;;13.32;100.00
54876;BME280;40764;48.472;8.166;2023-04-21T17:46:08;97519.22;;;13.13;100.00
54876;BME280;40764;48.472;8.166;2023-04-21T17:52:08;97523.94;;;12.95;100.00
54876;BME280;40764;48.472;8.166;2023-04-21T17:58:09;97517.66;;;12.86;100.00
54876;BME280;40764;48.472;8.166;2023-04-21T18:04:09;97516.09;;;12.67;100.00
54876;BME280;40764;48.472;8.166;2023-04-21T18:10:11;97512.41;;;12.46;100.00
54876;BME280;40764;48.472;8.166;2023-04-21T18:16:11;97516.44;;;12.14;100.00
54876;BME280;40764;48.472;8.166;2023-04-21T18:22:12;97512.25;;;12.25;100.00
54876;BME280;40764;48.472;8.166;2023-04-21T18:28:12;97518.69;;;12.12;100.00
54876;BME280;40764;48.472;8.166;2023-04-21T18:34:13;97528.31;;;11.84;100.00
54876;BME280;40764;48.472;8.166;2023-04-21T18:40:13;97529.06;;;11.67;100.00
54876;BME280;40764;48.472;8.166;2023-04-21T18:46:14;97532.94;;;11.74;100.00
54876;BME280;40764;48.472;8.166;2023-04-21T18:52:15;97539.22;;;11.66;100.00
54876;BME280;40764;48.472;8.166;2023-04-21T18:58:16;97544.16;;;11.47;100.00
54876;BME280;40764;48.472;8.166;2023-04-21T19:04:16;97554.91;;;11.43;100.00
54876;BME280;40764;48.472;8.166;2023-04-21T19:10:17;97546.91;;;11.16;100.00
54876;BME280;40764;48.472;8.166;2023-04-21T19:16:18;97554.81;;;11.17;100.00
54876;BME280;40764;48.472;8.166;2023-04-21T19:22:19;97553.22;;;11.25;100.00
54876;BME280;40764;48.472;8.166;2023-04-21T19:28:19;97558.69;;;10.94;100.00
54876;BME280;40764;48.472;8.166;2023-04-21T19:34:20;97556.81;;;10.72;100.00
54876;BME280;40764;48.472;8.166;2023-04-21T19:40:21;97558.66;;;10.85;100.00
54876;BME280;40764;48.472;8.166;2023-04-21T19:46:21;97556.50;;;10.74;100.00
54876;BME280;40764;48.472;8.166;2023-04-21T19:52:22;97558.59;;;10.77;100.00
54876;BME280;40764;48.472;8.166;2023-04-21T19:58:22;97562.78;;;10.74;100.00
54876;BME280;40764;48.472;8.166;2023-04-21T20:04:23;97562.63;;;10.57;100.00
54876;BME280;40764;48.472;8.166;2023-04-21T20:10:23;97572.50;;;10.67;100.00
54876;BME280;40764;48.472;8.166;2023-04-21T20:16:27;97568.25;;;10.74;100.00
54876;BME280;40764;48.472;8.166;2023-04-21T20:22:28;97565.25;;;10.62;100.00
54876;BME280;40764;48.472;8.166;2023-04-21T20:28:28;97562.94;;;10.55;100.00
54876;BME280;40764;48.472;8.166;2023-04-21T20:34:29;97565.03;;;10.36;100.00
54876;BME280;40764;48.472;8.166;2023-04-21T20:40:29;97562.09;;;10.46;100.00
54876;BME280;40764;48.472;8.166;2023-04-21T20:46:29;97571.66;;;10.58;100.00
54876;BME280;40764;48.472;8.166;2023-04-21T20:52:30;97565.63;;;10.47;100.00
54876;BME280;40764;48.472;8.166;2023-04-21T20:58:30;97557.66;;;10.37;100.00
54876;BME280;40764;48.472;8.166;2023-04-21T21:04:31;97568.41;;;10.33;100.00
54876;BME280;40764;48.472;8.166;2023-04-21T21:10:31;97571.94;;;10.34;100.00
54876;BME280;40764;48.472;8.166;2023-04-21T21:16:31;97566.47;;;10.34;100.00
54876;BME280;40764;48.472;8.166;2023-04-21T21:22:32;97581.06;;;10.29;100.00
54876;BME280;40764;48.472;8.166;2023-04-21T21:28:32;97571.78;;;10.03;100.00
54876;BME280;40764;48.472;8.166;2023-04-21T21:34:32;97575.22;;;10.08;100.00
54876;BME280;40764;48.472;8.166;2023-04-21T21:40:33;97581.41;;;10.00;100.00
54876;BME280;40764;48.472;8.166;2023-04-21T21:46:33;97578.44;;;10.10;100.00
54876;BME280;40764;48.472;8.166;2023-04-21T21:52:34;97580.22;;;9.92;100.00
54876;BME280;40764;48.472;8.166;2023-04-21T21:58:34;97580.72;;;9.94;100.00
54876;BME280;40764;48.472;8.166;2023-04-21T22:04:35;97572.09;;;10.01;100.00
54876;BME280;40764;48.472;8.166;2023-04-21T22:10:37;97573.81;;;9.97;100.00
54876;BME280;40764;48.472;8.166;2023-04-21T22:16:37;97572.75;;;9.84;100.00
54876;BME280;40764;48.472;8.166;2023-04-21T22:22:37;97574.75;;;9.79;100.00
54876;BME280;40764;48.472;8.166;2023-04-21T22:28:38;97574.56;;;9.75;100.00
54876;BME280;40764;48.472;8.166;2023-04-21T22:34:40;97570.13;;;9.66;100.00
54876;BME280;40764;48.472;8.166;2023-04-21T22:40:41;97568.44;;;9.56;100.00
54876;BME280;40764;48.472;8.166;2023-04-21T22:46:41;97575.47;;;9.71;100.00
54876;BME280;40764;48.472;8.166;2023-04-21T22:52:41;97565.69;;;9.56;100.00
54876;BME280;40764;48.472;8.166;2023-04-21T22:58:42;97564.88;;;9.69;100.00
54876;BME280;40764;48.472;8.166;2023-04-21T23:04:42;97565.69;;;9.70;100.00
54876;BME280;40764;48.472;8.166;2023-04-21T23:10:43;97559.31;;;9.60;100.00
54876;BME280;40764;48.472;8.166;2023-04-21T23:16:43;97556.72;;;9.55;100.00
54876;BME280;40764;48.472;8.166;2023-04-21T23:22:44;97547.97;;;9.53;100.00
54876;BME280;40764;48.472;8.166;2023-04-21T23:28:44;97552.06;;;9.56;100.00
54876;BME280;40764;48.472;8.166;2023-04-21T23:34:45;97548.00;;;9.40;100.00
54876;BME280;40764;48.472;8.166;2023-04-21T23:40:45;97540.44;;;9.37;100.00
54876;BME280;40764;48.472;8.166;2023-04-21T23:46:46;97544.47;;;9.39;100.00
54876;BME280;40764;48.472;8.166;2023-04-21T23:52:46;97543.66;;;9.39;100.00
54876;BME280;40764;48.472;8.166;2023-04-21T23:58:48;97541.16;;;9.28;100.00
